createdAt,value
2022-09-20T00:00:48.913Z,7.80
2022-09-20T00:03:31.952Z,7.00
2022-09-20T00:06:16.777Z,7.30
2022-09-20T00:09:01.465Z,6.37
2022-09-20T00:11:45.369Z,8.40
2022-09-20T00:14:28.398Z,7.07
2022-09-20T00:17:12.776Z,7.57
2022-09-20T00:19:55.835Z,7.30
2022-09-20T00:22:38.856Z,7.17
2022-09-20T00:25:22.527Z,8.00
2022-09-20T00:28:05.932Z,7.70
2022-09-20T00:30:49.288Z,8.07
2022-09-20T00:33:47.517Z,7.97
2022-09-20T00:36:31.222Z,8.17
2022-09-20T00:39:15.848Z,7.87
2022-09-20T00:41:58.867Z,9.37
2022-09-20T00:44:49.274Z,8.10
2022-09-20T00:47:40.286Z,8.33
2022-09-20T00:50:34.652Z,7.47
2022-09-20T00:53:22.078Z,7.77
2022-09-20T00:56:10.535Z,7.57
2022-09-20T00:59:01.673Z,8.10
2022-09-20T01:01:47.541Z,7.13
2022-09-20T01:04:31.255Z,7.67
2022-09-20T01:07:22.348Z,7.07
2022-09-20T01:10:05.615Z,7.93
2022-09-20T01:12:50.125Z,7.60
2022-09-20T01:15:35.398Z,8.10
2022-09-20T01:18:21.191Z,7.70
2022-09-20T01:21:05.987Z,7.77
2022-09-20T01:23:57.749Z,7.67
2022-09-20T01:27:03.122Z,8.07
2022-09-20T01:30:03.308Z,8.07
2022-09-20T01:32:59.158Z,7.30
2022-09-20T01:35:45.662Z,7.73
2022-09-20T01:38:37.316Z,7.57
2022-09-20T01:41:29.376Z,6.90
2022-09-20T01:44:19.855Z,7.33
2022-09-20T01:47:15.020Z,7.10
2022-09-20T01:50:07.497Z,7.83
2022-09-20T01:53:24.147Z,7.40
2022-09-20T01:56:34.987Z,8.20
2022-09-20T01:59:49.412Z,8.10
2022-09-20T02:03:01.720Z,8.40
2022-09-20T02:06:08.952Z,7.50
2022-09-20T02:09:13.830Z,8.23
2022-09-20T02:12:32.835Z,7.93
2022-09-20T02:15:36.492Z,7.63
2022-09-20T02:18:42.438Z,8.13
2022-09-20T02:21:35.964Z,8.00
2022-09-20T02:24:29.586Z,8.87
2022-09-20T02:27:25.035Z,9.63
2022-09-20T02:30:21.294Z,9.53
2022-09-20T02:33:15.763Z,8.93
2022-09-20T02:36:18.008Z,7.73
2022-09-20T02:39:09.004Z,8.83
2022-09-20T02:41:58.282Z,9.27
2022-09-20T02:45:05.104Z,8.43
2022-09-20T02:47:49.334Z,8.60
2022-09-20T02:50:42.432Z,8.00
2022-09-20T02:53:41.162Z,7.57
2022-09-20T02:56:32.831Z,8.53
2022-09-20T02:59:30.222Z,8.93
2022-09-20T03:02:23.777Z,8.27
2022-09-20T03:05:15.570Z,9.20
2022-09-20T03:08:16.442Z,8.77
2022-09-20T03:11:15.946Z,8.67
2022-09-20T03:14:11.721Z,9.53
2022-09-20T03:17:12.845Z,9.30
2022-09-20T03:20:08.180Z,9.10
2022-09-20T03:22:59.461Z,9.77
2022-09-20T03:25:56.152Z,9.60
2022-09-20T03:28:55.364Z,8.73
2022-09-20T03:32:00.500Z,9.57
2022-09-20T03:34:54.026Z,9.67
2022-09-20T03:38:00.373Z,8.43
2022-09-20T03:41:08.814Z,8.97
2022-09-20T03:44:15.783Z,11.80
2022-09-20T03:47:09.426Z,10.23
2022-09-20T03:50:17.652Z,9.40
2022-09-20T03:53:35.442Z,9.50
2022-09-20T03:56:41.507Z,8.07
2022-09-20T03:59:45.703Z,9.60
2022-09-20T04:02:54.666Z,9.30
2022-09-20T04:05:50.934Z,10.30
2022-09-20T04:08:52.981Z,9.57
2022-09-20T04:11:45.094Z,9.03
2022-09-20T04:14:36.290Z,15.17
2022-09-20T04:17:40.048Z,8.60
2022-09-20T04:20:29.854Z,8.60
2022-09-20T04:23:25.447Z,8.27
2022-09-20T04:26:09.222Z,12.37
2022-09-20T04:28:58.547Z,9.47
2022-09-20T04:31:54.113Z,8.77
2022-09-20T04:35:01.635Z,9.47
2022-09-20T04:37:45.951Z,9.23
2022-09-20T04:40:51.354Z,7.90
2022-09-20T04:44:12.414Z,9.40
2022-09-20T04:47:31.217Z,8.13
2022-09-20T04:50:40.766Z,8.90
2022-09-20T04:53:52.335Z,15.17
2022-09-20T04:56:52.322Z,9.07
2022-09-20T04:59:56.231Z,9.03
2022-09-20T05:03:16.750Z,11.47
2022-09-20T05:06:31.148Z,9.03
2022-09-20T05:09:42.448Z,8.33
2022-09-20T05:12:55.938Z,9.17
2022-09-20T05:15:45.576Z,10.97
2022-09-20T05:19:04.066Z,10.83
2022-09-20T05:22:13.050Z,8.50
2022-09-20T05:25:19.865Z,9.30
2022-09-20T05:28:11.490Z,8.70
2022-09-20T05:31:00.288Z,7.93
2022-09-20T05:33:53.275Z,10.43
2022-09-20T05:36:45.402Z,9.53
2022-09-20T05:39:39.598Z,9.30
2022-09-20T05:42:34.968Z,7.40
2022-09-20T05:45:32.356Z,9.97
2022-09-20T05:48:21.438Z,8.83
2022-09-20T05:51:15.344Z,12.10
2022-09-20T05:54:29.764Z,9.67
2022-09-20T05:57:23.686Z,8.50
2022-09-20T06:00:13.482Z,8.53
2022-09-20T06:03:08.044Z,8.97
2022-09-20T06:06:01.116Z,8.47
2022-09-20T06:09:12.150Z,10.13
2022-09-20T06:12:15.319Z,6.80
2022-09-20T06:15:04.881Z,7.97
2022-09-20T06:17:57.414Z,7.10
2022-09-20T06:20:51.547Z,8.73
2022-09-20T06:23:36.746Z,8.90
2022-09-20T06:26:25.220Z,7.47
2022-09-20T06:29:15.720Z,6.53
2022-09-20T06:31:58.707Z,8.20
2022-09-20T06:34:41.717Z,8.33
2022-09-20T06:37:59.448Z,5.73
2022-09-20T06:41:05.367Z,4.77
2022-09-20T06:43:50.628Z,7.87
2022-09-20T06:46:36.200Z,6.20
2022-09-20T06:49:19.205Z,4.77
2022-09-20T06:52:03.108Z,8.83
2022-09-20T06:54:47.288Z,5.50
2022-09-20T06:57:35.971Z,4.90
2022-09-20T07:00:20.763Z,7.63
2022-09-20T07:03:04.092Z,7.47
2022-09-20T07:05:48.068Z,7.33
2022-09-20T07:08:31.293Z,6.87
2022-09-20T07:11:16.801Z,4.67
2022-09-20T07:13:59.820Z,4.80
2022-09-20T07:16:44.567Z,5.70
2022-09-20T07:19:27.636Z,7.20
2022-09-20T07:22:11.095Z,4.10
2022-09-20T07:24:54.112Z,6.60
2022-09-20T07:27:37.107Z,5.00
2022-09-20T07:30:21.572Z,5.40
2022-09-20T07:33:06.018Z,7.30
2022-09-20T07:35:49.935Z,4.47
2022-09-20T07:38:32.983Z,5.20
2022-09-20T07:41:17.076Z,7.23
2022-09-20T07:44:20.177Z,9.03
2022-09-20T07:47:03.301Z,5.40
2022-09-20T07:49:47.701Z,4.67
2022-09-20T07:52:30.866Z,3.87
2022-09-20T07:55:13.854Z,4.87
2022-09-20T07:57:57.300Z,3.93
2022-09-20T08:00:40.314Z,6.43
2022-09-20T08:03:23.698Z,6.70
2022-09-20T08:06:10.564Z,4.80
2022-09-20T08:08:54.524Z,5.63
2022-09-20T08:11:39.611Z,11.87
2022-09-20T08:14:22.961Z,6.60
2022-09-20T08:17:06.251Z,4.73
2022-09-20T08:19:49.943Z,4.87
2022-09-20T08:22:34.898Z,6.10
2022-09-20T08:25:18.409Z,4.97
2022-09-20T08:28:01.428Z,4.20
2022-09-20T08:30:44.473Z,12.60
2022-09-20T08:33:28.617Z,3.83
2022-09-20T08:36:14.495Z,5.03
2022-09-20T08:42:14.013Z,4.60
2022-09-20T08:45:01.001Z,3.40
2022-09-20T08:47:53.268Z,3.97
2022-09-20T08:50:38.664Z,6.50
2022-09-20T08:53:21.715Z,5.80
2022-09-20T08:56:09.238Z,4.10
2022-09-20T08:58:53.331Z,5.40
2022-09-20T09:01:37.437Z,5.13
2022-09-20T09:04:23.436Z,5.33
2022-09-20T09:07:08.330Z,3.67
2022-09-20T09:09:55.372Z,5.10
2022-09-20T09:12:40.130Z,8.40
2022-09-20T09:15:29.378Z,4.43
2022-09-20T09:18:13.116Z,4.67
2022-09-20T09:20:58.238Z,8.60
2022-09-20T09:23:43.434Z,3.63
2022-09-20T09:26:28.136Z,4.60
2022-09-20T09:29:18.687Z,3.70
2022-09-20T09:32:23.972Z,3.77
2022-09-20T09:35:25.469Z,3.97
2022-09-20T09:38:19.100Z,3.60
2022-09-20T09:41:03.806Z,3.50
2022-09-20T09:44:00.303Z,7.50
2022-09-20T09:46:44.756Z,4.20
2022-09-20T09:49:29.423Z,4.27
2022-09-20T09:52:15.186Z,3.90
2022-09-20T09:55:04.532Z,8.60
2022-09-20T09:57:57.154Z,4.20
2022-09-20T10:00:46.519Z,5.17
2022-09-20T10:03:42.866Z,5.73
2022-09-20T10:06:30.310Z,4.40
2022-09-20T10:09:33.964Z,5.73
2022-09-20T10:12:27.108Z,10.50
2022-09-20T10:15:26.923Z,9.07
2022-09-20T10:18:25.111Z,5.30
2022-09-20T10:21:19.870Z,4.80
2022-09-20T10:24:14.586Z,6.33
2022-09-20T10:27:23.694Z,5.83
2022-09-20T10:30:13.463Z,6.97
2022-09-20T10:33:03.551Z,6.20
2022-09-20T10:36:15.747Z,3.70
2022-09-20T10:39:04.973Z,3.87
2022-09-20T10:42:13.681Z,7.03
2022-09-20T10:45:11.849Z,6.30
2022-09-20T10:48:04.744Z,10.70
2022-09-20T10:50:53.107Z,6.13
2022-09-20T10:53:45.455Z,5.30
2022-09-20T10:56:33.112Z,3.83
2022-09-20T10:59:33.467Z,4.00
2022-09-20T11:02:34.822Z,4.93
2022-09-20T11:05:29.531Z,8.40
2022-09-20T11:08:15.174Z,8.27
2022-09-20T11:11:06.565Z,7.33
2022-09-20T11:13:59.636Z,6.00
2022-09-20T11:16:51.757Z,6.43
2022-09-20T11:19:48.917Z,4.30
2022-09-20T11:22:40.210Z,6.00
2022-09-20T11:25:32.229Z,7.23
2022-09-20T11:28:20.956Z,6.57
2022-09-20T11:31:08.806Z,9.77
2022-09-20T11:33:58.739Z,7.67
2022-09-20T11:36:52.333Z,12.37
2022-09-20T11:39:44.104Z,6.57
2022-09-20T11:42:32.230Z,12.00
2022-09-20T11:45:17.034Z,8.10
2022-09-20T11:48:03.210Z,8.60
2022-09-20T11:51:08.908Z,6.90
2022-09-20T11:54:22.995Z,7.27
2022-09-20T11:57:09.184Z,7.80
2022-09-20T11:59:55.855Z,7.33
2022-09-20T12:02:47.704Z,9.17
2022-09-20T12:05:35.428Z,7.60
2022-09-20T12:08:23.838Z,7.33
2022-09-20T12:11:10.330Z,7.60
2022-09-20T12:13:56.601Z,8.93
2022-09-20T12:16:42.689Z,10.80
2022-09-20T12:19:40.195Z,9.07
2022-09-20T12:22:30.535Z,8.13
2022-09-20T12:25:38.181Z,7.20
2022-09-20T12:28:34.509Z,8.37
2022-09-20T12:31:39.285Z,13.63
2022-09-20T12:34:36.118Z,13.83
2022-09-20T12:37:26.518Z,7.53
2022-09-20T12:40:19.262Z,8.03
2022-09-20T12:43:02.698Z,8.83
2022-09-20T12:45:54.362Z,7.87
2022-09-20T12:48:39.590Z,9.03
2022-09-20T12:51:52.031Z,13.57
2022-09-20T12:54:52.542Z,10.37
2022-09-20T12:57:35.723Z,8.73
2022-09-20T13:00:34.337Z,7.97
2022-09-20T13:03:27.306Z,7.03
2022-09-20T13:06:25.897Z,6.63
2022-09-20T13:09:10.872Z,12.07
2022-09-20T13:11:58.117Z,12.73
2022-09-20T13:14:42.019Z,7.77
2022-09-20T13:17:30.953Z,11.27
2022-09-20T13:20:22.071Z,11.57
2022-09-20T13:23:08.627Z,8.60
2022-09-20T13:25:51.757Z,8.73
2022-09-20T13:28:44.285Z,7.30
2022-09-20T13:31:33.738Z,9.13
2022-09-20T13:34:22.138Z,9.73
2022-09-20T13:37:05.225Z,7.47
2022-09-20T13:39:49.002Z,6.63
2022-09-20T13:42:35.770Z,8.20
2022-09-20T13:45:22.979Z,6.80
2022-09-20T13:48:10.253Z,6.67
2022-09-20T13:50:53.919Z,6.93
2022-09-20T13:53:41.894Z,8.03
2022-09-20T13:56:29.949Z,5.97
2022-09-20T13:59:19.326Z,6.60
2022-09-20T14:02:05.170Z,6.47
2022-09-20T14:04:50.538Z,7.13
2022-09-20T14:07:36.835Z,8.03
2022-09-20T14:10:35.977Z,6.70
2022-09-20T14:13:20.478Z,7.40
2022-09-20T14:16:04.359Z,8.40
2022-09-20T14:18:50.644Z,6.30
2022-09-20T14:21:34.743Z,7.70
2022-09-20T14:24:32.005Z,6.53
2022-09-20T14:27:19.815Z,6.53
2022-09-20T14:30:03.959Z,6.63
2022-09-20T14:32:54.295Z,7.10
2022-09-20T14:35:38.819Z,7.97
2022-09-20T14:38:26.397Z,7.67
2022-09-20T14:41:09.472Z,7.37
2022-09-20T14:43:56.343Z,6.10
2022-09-20T14:46:39.554Z,7.00
2022-09-20T14:49:33.993Z,5.97
2022-09-20T14:52:43.806Z,6.57
2022-09-20T14:55:28.595Z,6.93
2022-09-20T14:58:13.501Z,7.70
2022-09-20T15:00:59.107Z,6.67
2022-09-20T15:03:43.281Z,7.90
2022-09-20T15:06:26.752Z,9.50
2022-09-20T15:09:13.756Z,6.77
2022-09-20T15:12:05.359Z,6.07
2022-09-20T15:14:49.436Z,6.70
2022-09-20T15:17:32.542Z,6.20
2022-09-20T15:20:23.967Z,6.20
2022-09-20T15:23:08.653Z,8.67
2022-09-20T15:25:56.547Z,6.10
2022-09-20T15:28:40.072Z,6.87
2022-09-20T15:31:23.133Z,8.53
2022-09-20T15:34:07.240Z,7.77
2022-09-20T15:36:50.858Z,5.73
2022-09-20T15:39:34.341Z,6.60
2022-09-20T15:42:21.589Z,6.53
2022-09-20T15:45:06.985Z,7.37
2022-09-20T15:47:50.102Z,6.07
2022-09-20T15:50:33.151Z,7.73
2022-09-20T15:53:16.169Z,8.17
2022-09-20T15:56:01.893Z,7.63
2022-09-20T15:58:48.323Z,7.80
2022-09-20T16:01:33.215Z,7.03
2022-09-20T16:04:18.685Z,8.17
2022-09-20T16:07:03.805Z,8.90
2022-09-20T16:09:46.863Z,7.23
2022-09-20T16:12:29.889Z,6.90
2022-09-20T16:15:14.393Z,8.10
2022-09-20T16:18:14.759Z,7.17
2022-09-20T16:21:07.575Z,7.47
2022-09-20T16:23:52.847Z,7.00
2022-09-20T16:26:37.773Z,8.47
2022-09-20T16:29:22.160Z,8.00
2022-09-20T16:32:06.626Z,7.50
2022-09-20T16:34:51.141Z,8.80
2022-09-20T16:37:35.483Z,7.93
2022-09-20T16:40:18.647Z,8.87
2022-09-20T16:43:01.735Z,10.17
2022-09-20T16:45:44.833Z,7.97
2022-09-20T16:48:30.515Z,8.40
2022-09-20T16:51:13.565Z,8.40
2022-09-20T16:53:56.937Z,7.73
2022-09-20T16:56:41.601Z,9.47
2022-09-20T16:59:24.616Z,16.40
2022-09-20T17:02:07.987Z,8.43
2022-09-20T17:04:52.509Z,8.37
2022-09-20T17:07:35.715Z,8.50
2022-09-20T17:10:20.711Z,8.47
2022-09-20T17:13:04.443Z,14.70
2022-09-20T17:15:50.044Z,9.87
2022-09-20T17:18:33.521Z,7.83
2022-09-20T17:21:18.483Z,9.90
2022-09-20T17:24:04.253Z,8.93
2022-09-20T17:26:47.536Z,14.57
2022-09-20T17:29:30.542Z,9.43
2022-09-20T17:32:13.718Z,12.00
2022-09-20T17:34:56.851Z,11.27
2022-09-20T17:37:41.831Z,11.83
2022-09-20T17:40:25.110Z,14.47
2022-09-20T17:43:08.197Z,10.33
2022-09-20T17:45:51.232Z,12.37
2022-09-20T17:48:35.415Z,10.43
2022-09-20T17:51:20.687Z,14.87
2022-09-20T17:54:06.171Z,16.40
2022-09-20T17:56:50.985Z,15.67
2022-09-20T17:59:34.539Z,13.43
2022-09-20T18:02:20.072Z,11.60
2022-09-20T18:05:03.331Z,15.13
2022-09-20T18:07:46.405Z,10.47
2022-09-20T18:10:31.395Z,10.90
2022-09-20T18:13:14.459Z,15.70
2022-09-20T18:15:57.709Z,16.70
2022-09-20T18:18:41.594Z,21.77
2022-09-20T18:21:25.623Z,19.03
2022-09-20T18:24:10.121Z,19.10
2022-09-20T18:26:54.656Z,22.97
2022-09-20T18:29:37.675Z,13.13
2022-09-20T18:32:20.652Z,19.73
2022-09-20T18:35:03.746Z,13.70
2022-09-20T18:37:47.258Z,22.87
2022-09-20T18:40:30.344Z,18.27
2022-09-20T18:43:14.796Z,16.53
2022-09-20T18:45:58.136Z,54.93
2022-09-20T18:48:41.472Z,17.37
2022-09-20T18:51:28.791Z,23.93
2022-09-20T18:54:13.237Z,16.97
2022-09-20T18:56:56.783Z,14.57
2022-09-20T18:59:53.397Z,14.50
2022-09-20T19:02:57.354Z,27.33
2022-09-20T19:05:44.734Z,17.63
2022-09-20T19:08:35.303Z,12.67
2022-09-20T19:11:27.786Z,18.93
2022-09-20T19:14:23.216Z,11.43
2022-09-20T19:17:12.120Z,16.73
2022-09-20T19:20:03.372Z,13.27
2022-09-20T19:23:05.548Z,15.77
2022-09-20T19:25:48.904Z,14.30
2022-09-20T19:28:32.569Z,17.07
2022-09-20T19:31:23.382Z,16.53
2022-09-20T19:34:17.532Z,14.10
2022-09-20T19:37:18.812Z,14.77
2022-09-20T19:40:21.571Z,12.60
2022-09-20T19:43:23.731Z,11.37
2022-09-20T19:46:20.454Z,13.67
2022-09-20T19:49:14.347Z,12.17
2022-09-20T19:51:57.931Z,10.60
2022-09-20T19:54:46.310Z,11.67
2022-09-20T19:57:37.385Z,11.07
2022-09-20T20:00:22.227Z,11.47
2022-09-20T20:03:05.873Z,10.17
2022-09-20T20:05:58.574Z,12.13
2022-09-20T20:08:48.830Z,9.77
2022-09-20T20:11:43.664Z,12.77
2022-09-20T20:14:35.629Z,10.47
2022-09-20T20:17:33.888Z,11.43
2022-09-20T20:20:24.168Z,10.63
2022-09-20T20:23:44.390Z,10.37
2022-09-20T20:26:28.070Z,9.27
2022-09-20T20:29:11.966Z,11.10
2022-09-20T20:31:55.074Z,13.00
2022-09-20T20:34:38.088Z,10.70
2022-09-20T20:37:24.050Z,10.60
2022-09-20T20:40:12.299Z,12.10
2022-09-20T20:43:02.085Z,10.53
2022-09-20T20:45:51.006Z,10.97
2022-09-20T20:48:34.819Z,14.70
2022-09-20T20:51:19.741Z,14.73
2022-09-20T20:54:04.880Z,11.87
2022-09-20T20:56:49.381Z,10.27
2022-09-20T20:59:32.401Z,10.73
2022-09-20T21:02:15.443Z,10.53
2022-09-20T21:04:58.818Z,9.87
2022-09-20T21:07:41.800Z,10.30
2022-09-20T21:10:24.962Z,9.83
2022-09-20T21:13:09.363Z,11.43
2022-09-20T21:15:52.699Z,11.47
2022-09-20T21:18:36.402Z,9.60
2022-09-20T21:21:21.542Z,9.93
2022-09-20T21:24:06.804Z,11.60
2022-09-20T21:26:49.822Z,9.90
2022-09-20T21:29:34.288Z,10.60
2022-09-20T21:32:17.264Z,10.87
2022-09-20T21:35:00.543Z,10.50
2022-09-20T21:37:45.857Z,10.30
2022-09-20T21:40:30.807Z,11.00
2022-09-20T21:43:14.068Z,14.57
2022-09-20T21:45:58.895Z,10.97
2022-09-20T21:48:42.466Z,10.53
2022-09-20T21:51:29.855Z,10.30
2022-09-20T21:54:13.169Z,11.20
2022-09-20T21:56:59.324Z,10.17
2022-09-20T21:59:42.556Z,12.73
2022-09-20T22:02:27.093Z,12.50
2022-09-20T22:05:11.534Z,12.63
2022-09-20T22:07:56.470Z,14.93
2022-09-20T22:10:39.476Z,12.70
2022-09-20T22:13:22.538Z,13.30
2022-09-20T22:16:07.309Z,11.57
2022-09-20T22:18:52.196Z,10.53
2022-09-20T22:21:37.732Z,11.00
2022-09-20T22:24:20.949Z,10.83
2022-09-20T22:27:04.071Z,16.50
2022-09-20T22:29:47.167Z,10.20
2022-09-20T22:32:30.350Z,10.77
2022-09-20T22:35:14.843Z,10.97
2022-09-20T22:37:58.748Z,10.93
2022-09-20T22:40:41.764Z,10.87
2022-09-20T22:43:25.053Z,10.87
2022-09-20T22:46:09.610Z,11.47
2022-09-20T22:48:52.703Z,9.97
2022-09-20T22:51:37.790Z,10.63
2022-09-20T22:54:20.824Z,9.83
2022-09-20T22:57:03.806Z,9.80
2022-09-20T22:59:46.773Z,10.33
2022-09-20T23:02:29.795Z,11.33
2022-09-20T23:05:12.754Z,12.10
2022-09-20T23:07:57.124Z,11.13
2022-09-20T23:10:40.116Z,12.57
2022-09-20T23:13:23.174Z,11.00
2022-09-20T23:16:14.021Z,10.63
2022-09-20T23:18:58.349Z,10.23
2022-09-20T23:21:43.085Z,9.67
2022-09-20T23:24:27.456Z,9.43
2022-09-20T23:27:10.886Z,10.17
2022-09-20T23:29:53.899Z,10.00
2022-09-20T23:32:36.964Z,9.37
2022-09-20T23:35:20.089Z,9.30
2022-09-20T23:38:03.121Z,11.97
2022-09-20T23:40:47.524Z,11.30
2022-09-20T23:43:30.519Z,9.93
2022-09-20T23:46:14.960Z,10.43
2022-09-20T23:48:57.980Z,9.40
2022-09-20T23:51:40.941Z,9.83
2022-09-20T23:54:23.898Z,9.90
2022-09-20T23:57:08.391Z,10.50
2022-09-20T23:59:52.433Z,9.87
